createdAt,value
2017-11-19T00:01:55.056Z,20.76
2017-11-19T00:04:20.835Z,20.70
2017-11-19T00:06:46.629Z,20.68
2017-11-19T00:09:12.467Z,20.69
2017-11-19T00:11:38.511Z,20.71
2017-11-19T00:14:04.318Z,20.83
2017-11-19T00:16:30.105Z,20.77
2017-11-19T00:18:55.893Z,20.69
2017-11-19T00:21:21.687Z,20.67
2017-11-19T00:23:47.504Z,20.70
2017-11-19T00:26:13.288Z,20.76
2017-11-19T00:28:39.081Z,20.72
2017-11-19T00:31:04.870Z,20.68
2017-11-19T00:33:30.887Z,20.67
2017-11-19T00:35:56.679Z,20.63
2017-11-19T00:38:22.479Z,20.64
2017-11-19T00:40:48.269Z,20.61
2017-11-19T00:43:14.060Z,20.67
2017-11-19T00:45:39.851Z,20.67
2017-11-19T00:48:05.634Z,20.59
2017-11-19T00:50:31.573Z,20.62
2017-11-19T00:52:57.366Z,20.61
2017-11-19T00:55:23.170Z,20.62
2017-11-19T00:57:48.986Z,20.58
2017-11-19T01:00:14.858Z,20.68
2017-11-19T01:02:40.645Z,20.62
2017-11-19T01:05:12.727Z,20.54
2017-11-19T01:07:38.538Z,20.63
2017-11-19T01:10:04.364Z,20.63
2017-11-19T01:12:30.189Z,20.66
2017-11-19T01:14:55.992Z,20.62
2017-11-19T01:17:21.845Z,20.52
2017-11-19T01:19:47.674Z,20.59
2017-11-19T01:22:13.452Z,20.54
2017-11-19T01:24:39.333Z,20.49
2017-11-19T01:27:05.119Z,20.54
2017-11-19T01:29:30.907Z,20.52
2017-11-19T01:31:56.693Z,20.60
2017-11-19T01:34:22.521Z,20.63
2017-11-19T01:36:48.321Z,20.65
2017-11-19T01:39:14.112Z,20.69
2017-11-19T01:41:39.908Z,20.58
2017-11-19T01:44:05.891Z,20.61
2017-11-19T01:46:31.680Z,20.62
2017-11-19T01:48:57.469Z,20.60
2017-11-19T01:51:23.261Z,20.62
2017-11-19T01:53:49.046Z,20.61
2017-11-19T01:56:15.953Z,20.53
2017-11-19T01:58:41.734Z,20.59
2017-11-19T02:01:07.562Z,20.57
2017-11-19T02:03:33.349Z,20.53
2017-11-19T02:05:59.140Z,20.51
2017-11-19T02:08:24.923Z,20.61
2017-11-19T02:10:50.725Z,20.59
2017-11-19T02:13:16.515Z,20.54
2017-11-19T02:15:42.374Z,20.62
2017-11-19T02:18:08.254Z,20.55
2017-11-19T02:20:34.025Z,20.61
2017-11-19T02:22:59.819Z,20.63
2017-11-19T02:25:25.640Z,20.68
2017-11-19T02:27:51.489Z,20.56
2017-11-19T02:30:17.273Z,20.57
2017-11-19T02:32:43.056Z,20.54
2017-11-19T02:35:08.839Z,20.52
2017-11-19T02:37:34.619Z,20.63
2017-11-19T02:40:00.401Z,20.57
2017-11-19T02:42:26.180Z,20.53
2017-11-19T02:44:52.738Z,20.54
2017-11-19T02:47:18.525Z,20.47
2017-11-19T02:49:44.321Z,20.57
2017-11-19T02:52:10.136Z,20.65
2017-11-19T02:54:35.916Z,20.61
2017-11-19T02:57:01.695Z,20.51
2017-11-19T02:59:28.265Z,20.53
2017-11-19T03:01:54.165Z,20.53
2017-11-19T03:04:19.949Z,20.58
2017-11-19T03:06:45.732Z,20.60
2017-11-19T03:09:11.506Z,20.63
2017-11-19T03:11:37.281Z,20.57
2017-11-19T03:14:03.066Z,20.55
2017-11-19T03:16:28.881Z,20.56
2017-11-19T03:18:54.654Z,20.61
2017-11-19T03:21:21.331Z,20.60
2017-11-19T03:23:47.109Z,20.59
2017-11-19T03:26:12.896Z,20.49
2017-11-19T03:28:38.689Z,20.54
2017-11-19T03:31:04.477Z,20.52
2017-11-19T03:33:30.313Z,20.52
2017-11-19T03:35:56.080Z,20.43
2017-11-19T03:38:21.852Z,20.45
2017-11-19T03:40:47.664Z,20.46
2017-11-19T03:43:13.484Z,20.61
2017-11-19T03:45:39.294Z,20.64
2017-11-19T03:48:05.167Z,20.65
2017-11-19T03:50:30.938Z,20.61
2017-11-19T03:52:56.741Z,20.58
2017-11-19T03:55:22.558Z,20.55
2017-11-19T03:57:48.380Z,20.54
2017-11-19T04:00:14.156Z,20.69
2017-11-19T04:02:39.977Z,20.69
2017-11-19T04:05:05.753Z,20.63
2017-11-19T04:07:31.532Z,20.63
2017-11-19T04:09:58.210Z,20.56
2017-11-19T04:12:23.989Z,20.54
2017-11-19T04:14:49.815Z,20.65
2017-11-19T04:17:15.597Z,20.62
2017-11-19T04:19:41.372Z,20.72
2017-11-19T04:22:07.158Z,20.61
2017-11-19T04:24:32.953Z,20.59
2017-11-19T04:26:58.746Z,20.56
2017-11-19T04:29:24.549Z,20.58
2017-11-19T04:31:50.342Z,20.65
2017-11-19T04:34:16.125Z,20.67
2017-11-19T04:36:41.913Z,20.65
2017-11-19T04:39:07.734Z,20.61
2017-11-19T04:41:33.512Z,20.59
2017-11-19T04:43:59.325Z,20.55
2017-11-19T04:46:25.101Z,20.65
2017-11-19T04:48:50.873Z,20.65
2017-11-19T04:51:16.664Z,20.64
2017-11-19T04:53:42.445Z,20.58
2017-11-19T04:56:08.280Z,20.57
2017-11-19T04:58:34.068Z,20.62
2017-11-19T05:00:59.852Z,20.56
2017-11-19T05:03:25.815Z,20.65
2017-11-19T05:05:51.592Z,20.52
2017-11-19T05:08:18.302Z,20.56
2017-11-19T05:10:44.094Z,20.59
2017-11-19T05:13:09.883Z,20.54
2017-11-19T05:15:35.692Z,20.60
2017-11-19T05:18:01.483Z,20.59
2017-11-19T05:20:27.269Z,20.51
2017-11-19T05:22:54.018Z,20.55
2017-11-19T05:25:19.802Z,20.54
2017-11-19T05:27:45.633Z,20.58
2017-11-19T05:30:11.633Z,20.51
2017-11-19T05:32:38.391Z,20.63
2017-11-19T05:35:04.177Z,20.57
2017-11-19T05:37:29.961Z,20.55
2017-11-19T05:39:55.743Z,20.58
2017-11-19T05:42:21.522Z,20.48
2017-11-19T05:44:47.301Z,20.46
2017-11-19T05:47:13.238Z,20.54
2017-11-19T05:49:39.061Z,20.46
2017-11-19T05:52:04.849Z,20.53
2017-11-19T05:54:30.669Z,20.56
2017-11-19T05:56:56.584Z,20.63
2017-11-19T05:59:22.365Z,20.64
2017-11-19T06:01:49.208Z,20.62
2017-11-19T06:04:14.997Z,20.61
2017-11-19T06:06:40.777Z,20.58
2017-11-19T06:09:06.569Z,20.71
2017-11-19T06:11:32.353Z,20.69
2017-11-19T06:13:58.128Z,20.65
2017-11-19T06:16:24.066Z,20.66
2017-11-19T06:18:49.848Z,20.67
2017-11-19T06:21:15.641Z,20.64
2017-11-19T06:23:41.416Z,20.72
2017-11-19T06:26:07.207Z,20.73
2017-11-19T06:28:33.017Z,20.76
2017-11-19T06:30:58.877Z,20.65
2017-11-19T06:33:24.724Z,20.65
2017-11-19T06:35:57.464Z,20.72
2017-11-19T06:38:23.274Z,20.62
2017-11-19T06:40:49.218Z,20.71
2017-11-19T06:43:15.071Z,20.78
2017-11-19T06:45:40.856Z,20.76
2017-11-19T06:48:06.634Z,20.70
2017-11-19T06:50:32.427Z,20.74
2017-11-19T06:52:58.238Z,20.82
2017-11-19T06:55:24.053Z,20.80
2017-11-19T06:57:49.867Z,20.72
2017-11-19T07:00:15.651Z,20.73
2017-11-19T07:02:41.430Z,20.78
2017-11-19T07:05:07.247Z,20.77
2017-11-19T07:07:33.190Z,20.75
2017-11-19T07:09:58.990Z,20.81
2017-11-19T07:12:24.792Z,20.75
2017-11-19T07:14:50.577Z,20.71
2017-11-19T07:17:18.554Z,20.72
2017-11-19T07:19:44.341Z,20.67
2017-11-19T07:22:10.149Z,20.72
2017-11-19T07:24:36.630Z,20.70
2017-11-19T07:27:03.818Z,20.77
2017-11-19T07:29:31.324Z,20.69
2017-11-19T07:31:57.181Z,20.58
2017-11-19T07:34:22.981Z,20.54
2017-11-19T07:36:48.920Z,20.69
2017-11-19T07:39:14.736Z,20.78
2017-11-19T07:41:40.533Z,20.76
2017-11-19T07:44:06.374Z,20.85
2017-11-19T07:46:32.198Z,20.81
2017-11-19T07:48:57.980Z,20.80
2017-11-19T07:51:23.813Z,20.82
2017-11-19T07:53:49.593Z,20.77
2017-11-19T07:56:16.301Z,20.79
2017-11-19T07:58:42.089Z,20.58
2017-11-19T08:01:08.088Z,20.65
2017-11-19T08:03:33.873Z,20.68
2017-11-19T08:05:59.807Z,20.72
2017-11-19T08:08:25.582Z,20.74
2017-11-19T08:10:51.375Z,20.77
2017-11-19T08:13:17.159Z,20.78
2017-11-19T08:15:42.954Z,20.94
2017-11-19T08:18:08.792Z,20.66
2017-11-19T08:20:34.561Z,20.48
2017-11-19T08:23:00.506Z,20.24
2017-11-19T08:25:27.250Z,20.31
2017-11-19T08:27:53.040Z,20.41
2017-11-19T08:30:18.828Z,20.49
2017-11-19T08:32:44.651Z,20.58
2017-11-19T08:35:10.761Z,20.59
2017-11-19T08:37:36.579Z,20.60
2017-11-19T08:40:02.611Z,20.60
2017-11-19T08:42:28.609Z,20.61
2017-11-19T08:44:55.350Z,20.55
2017-11-19T08:47:21.126Z,20.69
2017-11-19T08:49:46.981Z,20.72
2017-11-19T08:52:12.777Z,20.79
2017-11-19T08:54:38.724Z,20.80
2017-11-19T08:57:04.505Z,20.80
2017-11-19T08:59:30.288Z,20.87
2017-11-19T09:01:56.100Z,20.90
2017-11-19T09:04:21.886Z,20.93
2017-11-19T09:06:47.832Z,20.90
2017-11-19T09:09:13.637Z,20.74
2017-11-19T09:11:39.434Z,20.65
2017-11-19T09:14:05.281Z,20.34
2017-11-19T09:16:31.057Z,20.51
2017-11-19T09:18:56.851Z,20.31
2017-11-19T09:21:23.689Z,20.05
2017-11-19T09:23:49.491Z,20.05
2017-11-19T09:26:15.266Z,20.15
2017-11-19T09:28:41.234Z,20.47
2017-11-19T09:31:07.125Z,20.58
2017-11-19T09:33:32.942Z,20.65
2017-11-19T09:35:59.007Z,20.65
2017-11-19T09:38:25.496Z,20.60
2017-11-19T09:40:51.352Z,20.73
2017-11-19T09:43:17.145Z,20.79
2017-11-19T09:45:43.104Z,20.74
2017-11-19T09:48:09.385Z,20.75
2017-11-19T09:50:35.170Z,20.76
2017-11-19T09:53:00.974Z,20.74
2017-11-19T09:55:26.761Z,20.74
2017-11-19T09:57:52.645Z,20.76
2017-11-19T10:00:19.541Z,20.81
2017-11-19T10:02:45.322Z,20.82
2017-11-19T10:05:11.290Z,20.86
2017-11-19T10:07:37.211Z,20.89
2017-11-19T10:10:03.147Z,20.93
2017-11-19T10:12:29.092Z,20.93
2017-11-19T10:14:54.938Z,20.95
2017-11-19T10:17:20.716Z,20.87
2017-11-19T10:19:46.641Z,20.95
2017-11-19T10:22:12.430Z,20.98
2017-11-19T10:24:38.244Z,21.02
2017-11-19T10:27:04.028Z,20.97
2017-11-19T10:29:29.808Z,20.88
2017-11-19T10:31:56.021Z,20.88
2017-11-19T10:34:21.973Z,21.00
2017-11-19T10:36:47.813Z,20.91
2017-11-19T10:39:13.669Z,20.42
2017-11-19T10:41:39.461Z,20.88
2017-11-19T10:44:05.898Z,20.84
2017-11-19T10:46:31.704Z,20.89
2017-11-19T10:51:43.798Z,20.86
2017-11-19T10:54:09.595Z,20.95
2017-11-19T10:56:35.393Z,20.97
2017-11-19T10:59:01.200Z,20.91
2017-11-19T11:01:27.068Z,20.89
2017-11-19T11:03:53.001Z,20.93
2017-11-19T11:06:18.805Z,20.93
2017-11-19T11:08:44.721Z,20.92
2017-11-19T11:11:10.517Z,20.89
2017-11-19T11:13:36.510Z,20.87
2017-11-19T11:16:02.384Z,20.88
2017-11-19T11:18:28.315Z,20.89
2017-11-19T11:20:54.110Z,20.95
2017-11-19T11:23:19.907Z,20.97
2017-11-19T11:25:45.701Z,21.01
2017-11-19T11:28:11.489Z,20.98
2017-11-19T11:30:37.303Z,20.86
2017-11-19T11:33:03.236Z,20.87
2017-11-19T11:35:29.017Z,20.92
2017-11-19T11:37:54.813Z,20.96
2017-11-19T11:40:20.605Z,20.90
2017-11-19T11:42:46.505Z,20.92
2017-11-19T11:45:12.289Z,20.95
2017-11-19T11:47:38.162Z,20.97
2017-11-19T11:50:03.953Z,20.98
2017-11-19T11:52:29.889Z,21.07
2017-11-19T11:54:55.725Z,21.06
2017-11-19T11:57:21.639Z,21.11
2017-11-19T11:59:47.556Z,21.12
2017-11-19T12:02:13.344Z,21.02
2017-11-19T12:04:39.192Z,21.11
2017-11-19T12:07:05.117Z,21.10
2017-11-19T12:09:30.928Z,21.07
2017-11-19T12:11:57.589Z,21.12
2017-11-19T12:14:23.420Z,21.13
2017-11-19T12:16:49.197Z,21.03
2017-11-19T12:19:14.991Z,21.06
2017-11-19T12:21:40.771Z,21.12
2017-11-19T12:24:06.555Z,21.11
2017-11-19T12:26:32.366Z,21.05
2017-11-19T12:28:58.171Z,21.11
2017-11-19T12:31:24.028Z,21.04
2017-11-19T12:33:49.812Z,21.08
2017-11-19T12:36:15.605Z,21.04
2017-11-19T12:38:41.525Z,21.05
2017-11-19T12:41:09.562Z,21.10
2017-11-19T12:43:35.340Z,21.10
2017-11-19T12:46:01.133Z,21.04
2017-11-19T12:48:26.916Z,21.07
2017-11-19T12:50:52.734Z,21.08
2017-11-19T12:53:18.664Z,21.05
2017-11-19T12:55:44.444Z,21.06
2017-11-19T12:58:10.266Z,21.11
2017-11-19T13:00:36.058Z,21.05
2017-11-19T13:03:01.877Z,21.08
2017-11-19T13:05:27.670Z,21.08
2017-11-19T13:07:53.486Z,21.07
2017-11-19T13:10:19.516Z,21.14
2017-11-19T13:12:45.302Z,21.13
2017-11-19T13:15:11.293Z,21.10
2017-11-19T13:17:37.064Z,21.07
2017-11-19T13:20:02.904Z,21.07
2017-11-19T13:22:28.761Z,21.21
2017-11-19T13:24:54.728Z,21.15
2017-11-19T13:27:20.513Z,21.05
2017-11-19T13:29:46.293Z,20.66
2017-11-19T13:32:12.120Z,21.04
2017-11-19T13:34:38.965Z,21.11
2017-11-19T13:37:05.762Z,21.16
2017-11-19T13:39:32.381Z,21.21
2017-11-19T13:41:59.197Z,21.18
2017-11-19T13:44:26.052Z,21.15
2017-11-19T13:46:51.841Z,21.12
2017-11-19T13:49:17.733Z,21.15
2017-11-19T13:51:43.572Z,21.17
2017-11-19T13:54:09.373Z,21.14
2017-11-19T13:56:35.161Z,21.15
2017-11-19T13:59:00.932Z,21.06
2017-11-19T14:01:26.756Z,21.08
2017-11-19T14:06:25.192Z,21.08
2017-11-19T14:08:57.848Z,21.14
2017-11-19T14:14:20.516Z,20.94
2017-11-19T14:16:46.301Z,21.01
2017-11-19T14:19:12.997Z,21.12
2017-11-19T14:21:39.002Z,21.09
2017-11-19T14:24:04.794Z,21.07
2017-11-19T14:26:30.574Z,20.89
2017-11-19T14:28:56.358Z,20.47
2017-11-19T14:31:22.152Z,20.51
2017-11-19T14:33:48.929Z,19.96
2017-11-19T14:36:14.718Z,20.25
2017-11-19T14:38:40.552Z,20.57
2017-11-19T14:41:06.343Z,20.65
2017-11-19T14:43:32.145Z,20.74
2017-11-19T14:45:57.946Z,20.89
2017-11-19T14:48:23.745Z,20.89
2017-11-19T14:50:49.572Z,20.93
2017-11-19T14:53:15.390Z,20.94
2017-11-19T14:55:42.197Z,21.02
2017-11-19T14:58:08.947Z,21.02
2017-11-19T15:00:34.743Z,21.11
2017-11-19T15:03:00.724Z,21.05
2017-11-19T15:05:26.525Z,21.05
2017-11-19T15:07:52.330Z,20.95
2017-11-19T15:10:19.722Z,20.91
2017-11-19T15:12:45.521Z,20.92
2017-11-19T15:15:11.415Z,20.96
2017-11-19T15:17:37.243Z,20.94
2017-11-19T15:20:03.033Z,20.98
2017-11-19T15:22:29.637Z,20.87
2017-11-19T15:24:56.490Z,20.82
2017-11-19T15:27:22.334Z,20.87
2017-11-19T15:29:48.131Z,20.90
2017-11-19T15:32:13.922Z,21.04
2017-11-19T15:34:39.715Z,21.07
2017-11-19T15:37:05.514Z,21.03
2017-11-19T15:39:31.342Z,21.12
2017-11-19T15:41:57.189Z,21.16
2017-11-19T15:44:23.113Z,21.09
2017-11-19T15:46:48.907Z,21.00
2017-11-19T15:49:14.828Z,21.07
2017-11-19T15:51:40.628Z,21.09
2017-11-19T15:54:06.572Z,21.12
2017-11-19T15:56:32.374Z,21.20
2017-11-19T15:58:58.184Z,21.06
2017-11-19T16:01:24.033Z,21.06
2017-11-19T16:03:49.827Z,21.04
2017-11-19T16:06:15.751Z,21.02
2017-11-19T16:08:42.623Z,21.09
2017-11-19T16:11:09.394Z,21.02
2017-11-19T16:13:35.179Z,20.95
2017-11-19T16:16:00.974Z,20.90
2017-11-19T16:18:26.787Z,20.97
2017-11-19T16:20:52.588Z,21.07
2017-11-19T16:23:18.386Z,21.10
2017-11-19T16:25:44.373Z,21.08
2017-11-19T16:28:10.167Z,21.00
2017-11-19T16:30:36.805Z,20.96
2017-11-19T16:33:02.626Z,20.86
2017-11-19T16:35:28.428Z,20.89
2017-11-19T16:37:54.290Z,20.97
2017-11-19T16:40:20.131Z,20.96
2017-11-19T16:42:45.990Z,20.93
2017-11-19T16:45:11.854Z,20.89
2017-11-19T16:47:37.641Z,20.81
2017-11-19T16:50:03.436Z,20.81
2017-11-19T16:52:29.223Z,20.83
2017-11-19T16:54:55.036Z,20.84
2017-11-19T16:57:20.894Z,20.92
2017-11-19T16:59:46.769Z,20.98
2017-11-19T17:02:12.734Z,20.98
2017-11-19T17:04:39.659Z,20.97
2017-11-19T17:07:05.488Z,20.98
2017-11-19T17:09:34.658Z,21.07
2017-11-19T17:12:00.507Z,21.03
2017-11-19T17:14:26.293Z,21.07
2017-11-19T17:16:52.083Z,21.00
2017-11-19T17:19:18.921Z,20.94
2017-11-19T17:21:44.724Z,20.94
2017-11-19T17:24:10.606Z,20.97
2017-11-19T17:26:36.399Z,21.08
2017-11-19T17:29:02.229Z,21.15
2017-11-19T17:31:28.068Z,21.03
2017-11-19T17:33:53.868Z,21.07
2017-11-19T17:36:25.630Z,21.09
2017-11-19T17:38:51.417Z,21.07
2017-11-19T17:41:17.270Z,21.04
2017-11-19T17:43:43.050Z,21.13
2017-11-19T17:46:08.878Z,21.11
2017-11-19T17:48:34.668Z,21.08
2017-11-19T17:51:00.494Z,21.04
2017-11-19T17:53:26.485Z,21.09
2017-11-19T17:55:52.405Z,21.08
2017-11-19T17:58:18.209Z,21.00
2017-11-19T18:00:44.006Z,20.99
2017-11-19T18:03:09.842Z,20.86
2017-11-19T18:05:35.678Z,20.95
2017-11-19T18:08:01.493Z,21.02
2017-11-19T18:10:27.303Z,20.98
2017-11-19T18:12:55.966Z,20.99
2017-11-19T18:15:21.762Z,20.97
2017-11-19T18:17:47.561Z,20.87
2017-11-19T18:20:13.467Z,20.85
2017-11-19T18:22:39.310Z,20.90
2017-11-19T18:25:05.218Z,20.88
2017-11-19T18:27:31.308Z,20.79
2017-11-19T18:29:57.199Z,20.80
2017-11-19T18:32:23.006Z,20.77
2017-11-19T18:34:48.808Z,20.83
2017-11-19T18:37:14.753Z,20.91
2017-11-19T18:39:40.657Z,20.87
2017-11-19T18:42:06.452Z,20.87
2017-11-19T18:44:32.267Z,20.93
2017-11-19T18:46:58.197Z,20.87
2017-11-19T18:49:24.041Z,20.88
2017-11-19T18:51:49.838Z,20.90
2017-11-19T18:54:15.659Z,20.96
2017-11-19T18:56:41.445Z,21.00
2017-11-19T18:59:07.277Z,21.01
2017-11-19T19:01:33.117Z,21.09
2017-11-19T19:03:58.913Z,21.02
2017-11-19T19:06:24.704Z,21.01
2017-11-19T19:08:51.445Z,21.05
2017-11-19T19:11:17.277Z,21.02
2017-11-19T19:13:43.067Z,21.07
2017-11-19T19:16:08.928Z,21.09
2017-11-19T19:18:34.741Z,21.01
2017-11-19T19:21:00.770Z,20.96
2017-11-19T19:23:26.683Z,21.07
2017-11-19T19:25:52.770Z,21.00
2017-11-19T19:28:19.326Z,21.03
2017-11-19T19:30:48.011Z,21.07
2017-11-19T19:33:15.112Z,21.11
2017-11-19T19:35:41.042Z,21.01
2017-11-19T19:38:06.980Z,20.98
2017-11-19T19:40:32.896Z,20.99
2017-11-19T19:43:00.476Z,21.02
2017-11-19T19:45:27.925Z,21.01
2017-11-19T19:47:55.874Z,20.96
2017-11-19T19:50:24.139Z,20.98
2017-11-19T19:52:53.552Z,20.88
2017-11-19T19:55:22.903Z,20.92
2017-11-19T19:57:53.327Z,20.81
2017-11-19T20:00:25.432Z,20.88
2017-11-19T20:02:57.974Z,20.84
2017-11-19T20:05:28.763Z,20.91
2017-11-19T20:07:56.449Z,20.90
2017-11-19T20:10:25.845Z,20.97
2017-11-19T20:13:09.005Z,20.96
2017-11-19T20:15:35.525Z,21.01
2017-11-19T20:18:03.454Z,21.03
2017-11-19T20:20:30.345Z,20.94
2017-11-19T20:23:02.162Z,20.94
2017-11-19T20:25:30.780Z,21.00
2017-11-19T20:27:57.656Z,21.02
2017-11-19T20:30:24.389Z,21.04
2017-11-19T20:33:01.309Z,21.01
2017-11-19T20:35:28.585Z,21.02
2017-11-19T20:38:02.530Z,21.01
2017-11-19T20:40:31.237Z,20.97
2017-11-19T20:42:57.937Z,21.04
2017-11-19T20:45:25.405Z,21.01
2017-11-19T20:47:56.358Z,21.06
2017-11-19T20:50:24.587Z,21.05
2017-11-19T20:52:55.213Z,21.04
2017-11-19T20:55:29.341Z,20.94
2017-11-19T21:00:56.718Z,21.02
2017-11-19T21:03:26.306Z,21.08
2017-11-19T21:05:52.138Z,21.08
2017-11-19T21:08:24.991Z,21.04
2017-11-19T21:10:55.905Z,21.00
2017-11-19T21:13:27.013Z,21.03
2017-11-19T21:15:59.434Z,21.07
2017-11-19T21:18:33.074Z,21.05
2017-11-19T21:21:09.386Z,21.13
2017-11-19T21:23:41.206Z,21.10
2017-11-19T21:26:08.651Z,21.06
2017-11-19T21:28:36.823Z,21.03
2017-11-19T21:31:06.288Z,21.05
2017-11-19T21:33:37.502Z,21.10
2017-11-19T21:36:07.968Z,21.06
2017-11-19T21:38:35.576Z,21.14
2017-11-19T21:41:05.847Z,21.16
2017-11-19T21:43:34.590Z,21.09
2017-11-19T21:46:03.019Z,21.11
2017-11-19T21:48:32.237Z,21.13
2017-11-19T21:50:59.324Z,21.16
2017-11-19T21:53:26.804Z,21.18
2017-11-19T21:55:55.353Z,21.15
2017-11-19T21:58:24.428Z,21.06
2017-11-19T22:00:53.013Z,21.12
2017-11-19T22:03:21.429Z,21.12
2017-11-19T22:05:48.385Z,20.98
2017-11-19T22:08:14.173Z,21.10
2017-11-19T22:10:39.998Z,21.06
2017-11-19T22:13:05.836Z,20.96
2017-11-19T22:15:32.482Z,21.02
2017-11-19T22:17:58.265Z,20.91
2017-11-19T22:20:25.045Z,21.05
2017-11-19T22:22:51.789Z,21.00
2017-11-19T22:25:18.599Z,21.00
2017-11-19T22:27:44.393Z,21.01
2017-11-19T22:30:10.228Z,21.09
2017-11-19T22:32:36.044Z,21.07
2017-11-19T22:35:02.742Z,21.14
2017-11-19T22:37:28.573Z,21.05
2017-11-19T22:39:55.336Z,20.94
2017-11-19T22:42:22.057Z,21.00
2017-11-19T22:44:47.880Z,21.05
2017-11-19T22:47:13.657Z,21.04
2017-11-19T22:49:39.489Z,21.10
2017-11-19T22:52:06.263Z,21.14
2017-11-19T22:54:32.093Z,21.09
2017-11-19T22:56:58.945Z,20.99
2017-11-19T22:59:24.738Z,20.96
2017-11-19T23:01:50.769Z,21.10
2017-11-19T23:04:17.396Z,21.03
2017-11-19T23:06:44.226Z,21.01
2017-11-19T23:09:10.992Z,21.05
2017-11-19T23:11:36.781Z,21.05
2017-11-19T23:14:02.957Z,21.03
2017-11-19T23:16:28.760Z,21.00
2017-11-19T23:18:55.541Z,20.97
2017-11-19T23:21:22.345Z,20.94
2017-11-19T23:23:49.072Z,21.07
2017-11-19T23:26:15.787Z,21.08
2017-11-19T23:28:41.611Z,21.00
2017-11-19T23:31:07.399Z,21.06
2017-11-19T23:33:33.215Z,21.06
2017-11-19T23:36:00.022Z,20.97
2017-11-19T23:38:25.805Z,20.98
2017-11-19T23:40:51.613Z,20.98
2017-11-19T23:43:17.449Z,20.93
2017-11-19T23:45:43.234Z,20.96
2017-11-19T23:48:09.977Z,20.89
2017-11-19T23:50:35.760Z,20.94
2017-11-19T23:53:01.552Z,20.82
2017-11-19T23:55:27.353Z,20.80
2017-11-19T23:57:53.138Z,20.82
